sensor_id;sensor_type;location;lat;lon;timestamp;pressure;altitude;pressure_sealevel;temperature;humidity
66381;BME280;53177;52.648;1.214;2023-02-21T00:01:50;101512.44;;;7.91;93.21
66381;BME280;53177;52.648;1.214;2023-02-21T00:04:34;101511.59;;;7.97;93.26
66381;BME280;53177;52.648;1.214;2023-02-21T00:07:18;101510.72;;;8.01;92.90
66381;BME280;53177;52.648;1.214;2023-02-21T00:10:02;101510.69;;;8.02;93.06
66381;BME280;53177;52.648;1.214;2023-02-21T00:12:47;101516.84;;;8.10;92.57
66381;BME280;53177;52.648;1.214;2023-02-21T00:15:31;101521.25;;;8.08;92.61
66381;BME280;53177;52.648;1.214;2023-02-21T00:18:15;101526.53;;;8.11;92.63
66381;BME280;53177;52.648;1.214;2023-02-21T00:20:59;101530.00;;;8.06;93.10
66381;BME280;53177;52.648;1.214;2023-02-21T00:23:43;101527.41;;;8.04;93.35
66381;BME280;53177;52.648;1.214;2023-02-21T00:26:27;101528.28;;;8.05;93.54
66381;BME280;53177;52.648;1.214;2023-02-21T00:29:11;101521.25;;;8.14;92.97
66381;BME280;53177;52.648;1.214;2023-02-21T00:31:55;101528.28;;;8.12;93.34
66381;BME280;53177;52.648;1.214;2023-02-21T00:34:39;101533.53;;;8.08;93.71
66381;BME280;53177;52.648;1.214;2023-02-21T00:37:23;101532.66;;;8.15;93.64
66381;BME280;53177;52.648;1.214;2023-02-21T00:40:11;101532.66;;;8.21;93.22
66381;BME280;53177;52.648;1.214;2023-02-21T00:42:54;101537.06;;;8.22;93.48
66381;BME280;53177;52.648;1.214;2023-02-21T00:45:39;101537.97;;;8.28;93.04
66381;BME280;53177;52.648;1.214;2023-02-21T00:48:23;101537.94;;;8.25;93.28
66381;BME280;53177;52.648;1.214;2023-02-21T00:51:08;101535.31;;;8.28;93.20
66381;BME280;53177;52.648;1.214;2023-02-21T00:53:52;101529.19;;;8.31;93.11
66381;BME280;53177;52.648;1.214;2023-02-21T00:56:37;101522.16;;;8.35;92.75
66381;BME280;53177;52.648;1.214;2023-02-21T00:59:21;101514.25;;;8.33;92.98
66381;BME280;53177;52.648;1.214;2023-02-21T01:02:05;101513.38;;;8.31;93.36
66381;BME280;53177;52.648;1.214;2023-02-21T01:04:49;101516.88;;;8.28;93.40
66381;BME280;53177;52.648;1.214;2023-02-21T01:07:34;101520.38;;;8.32;92.94
66381;BME280;53177;52.648;1.214;2023-02-21T01:10:18;101520.41;;;8.30;93.26
66381;BME280;53177;52.648;1.214;2023-02-21T01:13:03;101511.59;;;8.36;93.20
66381;BME280;53177;52.648;1.214;2023-02-21T01:15:47;101508.97;;;8.33;93.42
66381;BME280;53177;52.648;1.214;2023-02-21T01:18:31;101503.72;;;8.33;93.34
66381;BME280;53177;52.648;1.214;2023-02-21T01:21:16;101503.72;;;8.35;93.42
66381;BME280;53177;52.648;1.214;2023-02-21T01:24:01;101501.06;;;8.36;93.25
66381;BME280;53177;52.648;1.214;2023-02-21T01:26:45;101495.78;;;8.36;93.42
66381;BME280;53177;52.648;1.214;2023-02-21T01:29:29;101501.94;;;8.37;93.35
66381;BME280;53177;52.648;1.214;2023-02-21T01:32:13;101493.16;;;8.42;92.98
66381;BME280;53177;52.648;1.214;2023-02-21T01:34:57;101493.16;;;8.41;92.89
66381;BME280;53177;52.648;1.214;2023-02-21T01:37:41;101494.03;;;8.40;93.08
66381;BME280;53177;52.648;1.214;2023-02-21T01:40:27;101505.47;;;8.42;93.27
66381;BME280;53177;52.648;1.214;2023-02-21T01:43:16;101506.34;;;8.35;93.18
66381;BME280;53177;52.648;1.214;2023-02-21T01:46:00;101499.34;;;8.35;93.41
66381;BME280;53177;52.648;1.214;2023-02-21T01:48:46;101496.69;;;8.38;93.19
66381;BME280;53177;52.648;1.214;2023-02-21T01:51:34;101495.81;;;8.38;93.13
66381;BME280;53177;52.648;1.214;2023-02-21T01:54:20;101497.53;;;8.43;92.94
66381;BME280;53177;52.648;1.214;2023-02-21T01:57:06;101494.91;;;8.49;92.83
66381;BME280;53177;52.648;1.214;2023-02-21T01:59:52;101493.16;;;8.44;92.83
66381;BME280;53177;52.648;1.214;2023-02-21T02:05:25;101494.03;;;8.47;92.78
66381;BME280;53177;52.648;1.214;2023-02-21T02:08:11;101490.53;;;8.41;92.99
66381;BME280;53177;52.648;1.214;2023-02-21T02:11:18;101481.75;;;8.34;93.39
66381;BME280;53177;52.648;1.214;2023-02-21T02:14:33;101488.75;;;8.32;93.56
66381;BME280;53177;52.648;1.214;2023-02-21T02:28:16;101491.41;;;8.49;92.77
66381;BME280;53177;52.648;1.214;2023-02-21T02:31:11;101491.41;;;8.40;93.19
66381;BME280;53177;52.648;1.214;2023-02-21T02:33:55;101479.97;;;8.51;92.77
66381;BME280;53177;52.648;1.214;2023-02-21T02:36:29;101476.44;;;8.43;93.12
66381;BME280;53177;52.648;1.214;2023-02-21T02:39:14;101482.63;;;8.42;93.18
66381;BME280;53177;52.648;1.214;2023-02-21T02:41:59;101482.59;;;8.51;92.80
66381;BME280;53177;52.648;1.214;2023-02-21T02:44:38;101475.56;;;8.50;92.50
66381;BME280;53177;52.648;1.214;2023-02-21T02:47:06;101479.97;;;8.45;92.84
66381;BME280;53177;52.648;1.214;2023-02-21T02:49:35;101486.13;;;8.44;93.28
66381;BME280;53177;52.648;1.214;2023-02-21T02:52:07;101479.09;;;8.52;92.80
66381;BME280;53177;52.648;1.214;2023-02-21T02:54:33;101479.09;;;8.48;92.95
66381;BME280;53177;52.648;1.214;2023-02-21T02:57:01;101475.56;;;8.43;93.08
66381;BME280;53177;52.648;1.214;2023-02-21T02:59:29;101479.97;;;8.44;93.22
66381;BME280;53177;52.648;1.214;2023-02-21T03:05:49;101477.34;;;8.41;93.42
66381;BME280;53177;52.648;1.214;2023-02-21T03:08:01;101476.47;;;8.42;93.25
66381;BME280;53177;52.648;1.214;2023-02-21T03:10:39;101471.19;;;8.40;93.49
66381;BME280;53177;52.648;1.214;2023-02-21T03:18:50;101467.69;;;8.40;93.33
66381;BME280;53177;52.648;1.214;2023-02-21T03:21:20;101465.06;;;8.38;93.56
66381;BME280;53177;52.648;1.214;2023-02-21T03:23:50;101456.28;;;8.35;93.34
66381;BME280;53177;52.648;1.214;2023-02-21T03:26:17;101463.31;;;8.34;93.77
66381;BME280;53177;52.648;1.214;2023-02-21T03:28:44;101462.44;;;8.35;93.52
66381;BME280;53177;52.648;1.214;2023-02-21T03:31:12;101471.22;;;8.32;93.77
66381;BME280;53177;52.648;1.214;2023-02-21T03:33:39;101468.56;;;8.36;93.82
66381;BME280;53177;52.648;1.214;2023-02-21T03:36:05;101468.56;;;8.37;93.53
66381;BME280;53177;52.648;1.214;2023-02-21T03:38:33;101463.28;;;8.36;93.51
66381;BME280;53177;52.648;1.214;2023-02-21T03:40:58;101462.44;;;8.35;93.63
66381;BME280;53177;52.648;1.214;2023-02-21T03:43:24;101465.06;;;8.30;93.98
66381;BME280;53177;52.648;1.214;2023-02-21T03:45:49;101471.22;;;8.34;93.79
66381;BME280;53177;52.648;1.214;2023-02-21T03:48:15;101462.41;;;8.41;93.66
66381;BME280;53177;52.648;1.214;2023-02-21T03:50:40;101467.66;;;8.43;93.15
66381;BME280;53177;52.648;1.214;2023-02-21T03:53:06;101460.69;;;8.34;93.74
66381;BME280;53177;52.648;1.214;2023-02-21T03:55:32;101461.53;;;8.28;93.80
66381;BME280;53177;52.648;1.214;2023-02-21T03:57:57;101463.31;;;8.29;93.95
66381;BME280;53177;52.648;1.214;2023-02-21T04:00:23;101468.53;;;8.28;94.22
66381;BME280;53177;52.648;1.214;2023-02-21T04:02:49;101472.09;;;8.28;94.01
66381;BME280;53177;52.648;1.214;2023-02-21T04:05:15;101470.34;;;8.30;93.93
66381;BME280;53177;52.648;1.214;2023-02-21T04:07:40;101471.16;;;8.28;94.04
66381;BME280;53177;52.648;1.214;2023-02-21T04:10:05;101468.53;;;8.25;94.14
66381;BME280;53177;52.648;1.214;2023-02-21T04:12:31;101472.97;;;8.27;94.38
66381;BME280;53177;52.648;1.214;2023-02-21T04:14:56;101468.59;;;8.34;93.61
66381;BME280;53177;52.648;1.214;2023-02-21T04:17:23;101465.97;;;8.31;93.57
66381;BME280;53177;52.648;1.214;2023-02-21T04:19:49;101482.63;;;8.31;93.92
66381;BME280;53177;52.648;1.214;2023-02-21T04:22:15;101477.38;;;8.35;93.61
66381;BME280;53177;52.648;1.214;2023-02-21T04:24:40;101471.22;;;8.31;93.26
66381;BME280;53177;52.648;1.214;2023-02-21T04:27:06;101468.59;;;8.31;93.70
66381;BME280;53177;52.648;1.214;2023-02-21T04:29:32;101469.44;;;8.24;93.87
66381;BME280;53177;52.648;1.214;2023-02-21T04:31:57;101467.66;;;8.24;93.66
66381;BME280;53177;52.648;1.214;2023-02-21T04:34:22;101464.16;;;8.25;93.90
66381;BME280;53177;52.648;1.214;2023-02-21T04:36:48;101474.72;;;8.33;93.76
66381;BME280;53177;52.648;1.214;2023-02-21T04:39:13;101475.59;;;8.34;93.45
66381;BME280;53177;52.648;1.214;2023-02-21T04:41:39;101463.31;;;8.29;93.59
66381;BME280;53177;52.648;1.214;2023-02-21T04:44:05;101469.44;;;8.25;93.86
66381;BME280;53177;52.648;1.214;2023-02-21T04:46:31;101466.81;;;8.22;93.89
66381;BME280;53177;52.648;1.214;2023-02-21T04:48:56;101468.53;;;8.20;93.81
66381;BME280;53177;52.648;1.214;2023-02-21T04:51:24;101474.69;;;8.21;94.08
66381;BME280;53177;52.648;1.214;2023-02-21T04:53:50;101477.34;;;8.22;94.03
66381;BME280;53177;52.648;1.214;2023-02-21T04:56:21;101476.44;;;8.20;93.85
66381;BME280;53177;52.648;1.214;2023-02-21T04:58:47;101477.34;;;8.22;93.91
66381;BME280;53177;52.648;1.214;2023-02-21T05:01:16;101470.28;;;8.24;93.80
66381;BME280;53177;52.648;1.214;2023-02-21T05:03:42;101465.03;;;8.26;93.59
66381;BME280;53177;52.648;1.214;2023-02-21T05:06:08;101465.91;;;8.20;93.68
66381;BME280;53177;52.648;1.214;2023-02-21T05:08:34;101465.91;;;8.25;93.58
66381;BME280;53177;52.648;1.214;2023-02-21T05:10:59;101459.78;;;8.20;93.55
66381;BME280;53177;52.648;1.214;2023-02-21T05:13:25;101470.31;;;8.37;92.50
66381;BME280;53177;52.648;1.214;2023-02-21T05:15:51;101471.22;;;8.34;92.76
66381;BME280;53177;52.648;1.214;2023-02-21T05:18:16;101462.44;;;8.30;92.87
66381;BME280;53177;52.648;1.214;2023-02-21T05:20:50;101464.16;;;8.22;93.02
66381;BME280;53177;52.648;1.214;2023-02-21T05:23:17;101456.25;;;8.21;93.17
66381;BME280;53177;52.648;1.214;2023-02-21T05:25:43;101442.22;;;8.16;93.68
66381;BME280;53177;52.648;1.214;2023-02-21T05:28:09;101460.69;;;8.13;93.70
66381;BME280;53177;52.648;1.214;2023-02-21T05:30:34;101458.91;;;8.13;93.52
66381;BME280;53177;52.648;1.214;2023-02-21T05:33:00;101449.25;;;8.20;93.30
66381;BME280;53177;52.648;1.214;2023-02-21T05:35:25;101446.59;;;8.18;93.15
66381;BME280;53177;52.648;1.214;2023-02-21T05:37:51;101445.72;;;8.18;93.05
66381;BME280;53177;52.648;1.214;2023-02-21T05:40:17;101443.97;;;8.17;93.11
66381;BME280;53177;52.648;1.214;2023-02-21T05:42:43;101449.25;;;8.08;93.29
66381;BME280;53177;52.648;1.214;2023-02-21T05:45:10;101456.28;;;8.09;93.58
66381;BME280;53177;52.648;1.214;2023-02-21T05:47:35;101461.56;;;8.09;93.26
66381;BME280;53177;52.648;1.214;2023-02-21T05:50:02;101455.41;;;8.05;93.19
66381;BME280;53177;52.648;1.214;2023-02-21T05:52:28;101441.38;;;8.02;93.82
66381;BME280;53177;52.648;1.214;2023-02-21T05:54:54;101444.88;;;8.05;94.13
66381;BME280;53177;52.648;1.214;2023-02-21T05:57:19;101442.22;;;8.02;93.55
66381;BME280;53177;52.648;1.214;2023-02-21T05:59:44;101437.81;;;8.10;93.09
66381;BME280;53177;52.648;1.214;2023-02-21T06:02:15;101436.09;;;8.08;93.13
66381;BME280;53177;52.648;1.214;2023-02-21T06:04:41;101442.22;;;8.02;93.30
66381;BME280;53177;52.648;1.214;2023-02-21T06:07:06;101448.38;;;8.00;93.69
66381;BME280;53177;52.648;1.214;2023-02-21T06:09:32;101446.63;;;7.99;93.63
66381;BME280;53177;52.648;1.214;2023-02-21T06:11:57;101439.63;;;7.98;93.79
66381;BME280;53177;52.648;1.214;2023-02-21T06:14:23;101444.88;;;7.96;93.59
66381;BME280;53177;52.648;1.214;2023-02-21T06:16:49;101436.97;;;7.93;93.88
66381;BME280;53177;52.648;1.214;2023-02-21T06:19:16;101449.25;;;7.96;93.86
66381;BME280;53177;52.648;1.214;2023-02-21T06:21:43;101447.50;;;7.99;93.79
66381;BME280;53177;52.648;1.214;2023-02-21T06:24:09;101447.50;;;7.98;93.72
66381;BME280;53177;52.648;1.214;2023-02-21T06:26:35;101448.38;;;7.97;93.90
66381;BME280;53177;52.648;1.214;2023-02-21T06:29:05;101450.13;;;8.01;93.37
66381;BME280;53177;52.648;1.214;2023-02-21T06:31:36;101442.22;;;8.04;93.26
66381;BME280;53177;52.648;1.214;2023-02-21T06:34:05;101442.22;;;7.99;93.38
66381;BME280;53177;52.648;1.214;2023-02-21T06:36:35;101441.38;;;7.97;93.20
66381;BME280;53177;52.648;1.214;2023-02-21T06:39:03;101443.97;;;7.99;93.74
66381;BME280;53177;52.648;1.214;2023-02-21T06:41:29;101442.22;;;7.95;93.78
66381;BME280;53177;52.648;1.214;2023-02-21T06:43:58;101441.34;;;7.93;93.51
66381;BME280;53177;52.648;1.214;2023-02-21T06:46:27;101444.88;;;7.90;93.72
66381;BME280;53177;52.648;1.214;2023-02-21T06:48:52;101441.34;;;7.91;93.65
66381;BME280;53177;52.648;1.214;2023-02-21T06:51:19;101447.50;;;7.90;93.66
66381;BME280;53177;52.648;1.214;2023-02-21T06:53:48;101447.50;;;7.87;93.89
66381;BME280;53177;52.648;1.214;2023-02-21T06:56:14;101442.25;;;7.90;93.97
66381;BME280;53177;52.648;1.214;2023-02-21T06:58:39;101443.13;;;7.89;93.57
66381;BME280;53177;52.648;1.214;2023-02-21T07:01:05;101440.47;;;7.89;93.93
66381;BME280;53177;52.648;1.214;2023-02-21T07:03:30;101449.25;;;7.88;93.80
66381;BME280;53177;52.648;1.214;2023-02-21T07:05:56;101448.38;;;7.84;93.61
66381;BME280;53177;52.648;1.214;2023-02-21T07:08:21;101445.75;;;7.84;93.55
66381;BME280;53177;52.648;1.214;2023-02-21T07:10:47;101453.66;;;7.81;94.07
66381;BME280;53177;52.648;1.214;2023-02-21T07:13:12;101449.25;;;7.82;94.05
66381;BME280;53177;52.648;1.214;2023-02-21T07:15:37;101442.25;;;7.79;93.72
66381;BME280;53177;52.648;1.214;2023-02-21T07:18:03;101443.09;;;7.84;93.96
66381;BME280;53177;52.648;1.214;2023-02-21T07:20:29;101441.38;;;7.76;94.05
66381;BME280;53177;52.648;1.214;2023-02-21T07:22:57;101445.72;;;7.80;93.55
66381;BME280;53177;52.648;1.214;2023-02-21T07:25:23;101450.16;;;7.82;94.04
66381;BME280;53177;52.648;1.214;2023-02-21T07:27:49;101442.25;;;7.78;93.93
66381;BME280;53177;52.648;1.214;2023-02-21T07:30:16;101446.63;;;7.80;93.84
66381;BME280;53177;52.648;1.214;2023-02-21T07:32:41;101444.00;;;7.74;93.91
66381;BME280;53177;52.648;1.214;2023-02-21T07:35:07;101447.50;;;7.75;94.10
66381;BME280;53177;52.648;1.214;2023-02-21T07:37:32;101444.00;;;7.79;93.35
66381;BME280;53177;52.648;1.214;2023-02-21T07:39:58;101441.34;;;7.77;93.51
66381;BME280;53177;52.648;1.214;2023-02-21T07:42:24;101450.13;;;7.81;93.54
66381;BME280;53177;52.648;1.214;2023-02-21T07:44:54;101449.25;;;7.74;93.79
66381;BME280;53177;52.648;1.214;2023-02-21T07:47:21;101440.50;;;7.75;93.53
66381;BME280;53177;52.648;1.214;2023-02-21T07:49:46;101436.09;;;7.73;93.72
66381;BME280;53177;52.648;1.214;2023-02-21T07:52:11;101450.13;;;7.75;93.85
66381;BME280;53177;52.648;1.214;2023-02-21T07:54:37;101436.09;;;7.70;93.55
66381;BME280;53177;52.648;1.214;2023-02-21T07:57:02;101439.63;;;7.72;93.56
66381;BME280;53177;52.648;1.214;2023-02-21T07:59:28;101438.72;;;7.70;93.61
66381;BME280;53177;52.648;1.214;2023-02-21T08:01:53;101439.59;;;7.70;93.67
66381;BME280;53177;52.648;1.214;2023-02-21T08:04:19;101439.59;;;7.75;93.75
66381;BME280;53177;52.648;1.214;2023-02-21T08:06:47;101431.69;;;7.70;93.44
66381;BME280;53177;52.648;1.214;2023-02-21T08:09:13;101439.63;;;7.72;93.32
66381;BME280;53177;52.648;1.214;2023-02-21T08:11:38;101440.47;;;7.71;93.04
66381;BME280;53177;52.648;1.214;2023-02-21T08:14:04;101434.34;;;7.79;93.21
66381;BME280;53177;52.648;1.214;2023-02-21T08:16:30;101434.34;;;7.81;93.14
66381;BME280;53177;52.648;1.214;2023-02-21T08:18:55;101435.22;;;7.84;93.20
66381;BME280;53177;52.648;1.214;2023-02-21T08:21:21;101428.19;;;7.82;92.97
66381;BME280;53177;52.648;1.214;2023-02-21T08:23:46;101437.84;;;7.84;93.18
66381;BME280;53177;52.648;1.214;2023-02-21T08:26:11;101438.72;;;7.80;93.05
66381;BME280;53177;52.648;1.214;2023-02-21T08:28:37;101437.88;;;7.91;92.59
66381;BME280;53177;52.648;1.214;2023-02-21T08:31:02;101437.88;;;7.91;92.75
66381;BME280;53177;52.648;1.214;2023-02-21T08:33:28;101435.22;;;7.91;92.70
66381;BME280;53177;52.648;1.214;2023-02-21T08:35:53;101433.47;;;7.90;92.77
66381;BME280;53177;52.648;1.214;2023-02-21T08:38:19;101429.06;;;7.92;92.82
66381;BME280;53177;52.648;1.214;2023-02-21T08:40:45;101429.97;;;7.94;92.48
66381;BME280;53177;52.648;1.214;2023-02-21T08:43:10;101432.59;;;7.94;92.67
66381;BME280;53177;52.648;1.214;2023-02-21T08:45:36;101428.19;;;7.96;92.56
66381;BME280;53177;52.648;1.214;2023-02-21T08:48:02;101434.31;;;7.99;92.49
66381;BME280;53177;52.648;1.214;2023-02-21T08:50:29;101441.34;;;8.05;92.15
66381;BME280;53177;52.648;1.214;2023-02-21T08:52:55;101444.00;;;8.05;92.02
66381;BME280;53177;52.648;1.214;2023-02-21T08:55:22;101435.22;;;8.09;91.98
66381;BME280;53177;52.648;1.214;2023-02-21T08:57:48;101439.59;;;8.07;91.67
66381;BME280;53177;52.648;1.214;2023-02-21T09:00:16;101436.06;;;8.06;91.53
66381;BME280;53177;52.648;1.214;2023-02-21T09:02:43;101443.09;;;8.10;91.14
66381;BME280;53177;52.648;1.214;2023-02-21T09:05:12;101440.47;;;8.10;91.48
66381;BME280;53177;52.648;1.214;2023-02-21T09:07:38;101437.81;;;8.15;91.26
66381;BME280;53177;52.648;1.214;2023-02-21T09:10:04;101434.31;;;8.19;90.80
66381;BME280;53177;52.648;1.214;2023-02-21T09:12:31;101425.50;;;8.21;90.55
66381;BME280;53177;52.648;1.214;2023-02-21T09:14:56;101434.28;;;8.28;90.63
66381;BME280;53177;52.648;1.214;2023-02-21T09:17:22;101436.94;;;8.36;90.19
66381;BME280;53177;52.648;1.214;2023-02-21T09:19:47;101434.31;;;8.37;90.41
66381;BME280;53177;52.648;1.214;2023-02-21T09:22:13;101430.81;;;8.38;90.13
66381;BME280;53177;52.648;1.214;2023-02-21T09:24:38;101428.16;;;8.34;89.88
66381;BME280;53177;52.648;1.214;2023-02-21T09:27:04;101428.16;;;8.41;89.85
66381;BME280;53177;52.648;1.214;2023-02-21T09:29:31;101424.63;;;8.41;89.78
66381;BME280;53177;52.648;1.214;2023-02-21T09:31:58;101432.56;;;8.42;89.77
66381;BME280;53177;52.648;1.214;2023-02-21T09:34:24;101432.53;;;8.45;89.63
66381;BME280;53177;52.648;1.214;2023-02-21T09:36:49;101431.66;;;8.49;89.58
66381;BME280;53177;52.648;1.214;2023-02-21T09:39:19;101425.47;;;8.50;88.80
66381;BME280;53177;52.648;1.214;2023-02-21T09:41:45;101422.84;;;8.55;88.56
66381;BME280;53177;52.648;1.214;2023-02-21T09:44:18;101414.03;;;8.59;88.86
66381;BME280;53177;52.648;1.214;2023-02-21T09:46:47;101420.16;;;8.65;88.77
66381;BME280;53177;52.648;1.214;2023-02-21T09:49:23;101414.88;;;8.68;88.65
66381;BME280;53177;52.648;1.214;2023-02-21T09:51:49;101412.28;;;8.64;88.36
66381;BME280;53177;52.648;1.214;2023-02-21T09:54:42;101409.63;;;8.64;88.57
66381;BME280;53177;52.648;1.214;2023-02-21T09:57:13;101410.47;;;8.70;88.50
66381;BME280;53177;52.648;1.214;2023-02-21T09:59:39;101414.88;;;8.68;88.07
66381;BME280;53177;52.648;1.214;2023-02-21T10:09:56;101414.00;;;8.75;87.63
66381;BME280;53177;52.648;1.214;2023-02-21T10:12:31;101414.81;;;8.84;87.65
66381;BME280;53177;52.648;1.214;2023-02-21T10:18:15;101412.19;;;8.85;87.09
66381;BME280;53177;52.648;1.214;2023-02-21T10:20:50;101405.13;;;8.89;86.69
66381;BME280;53177;52.648;1.214;2023-02-21T10:23:20;101413.03;;;8.93;86.55
66381;BME280;53177;52.648;1.214;2023-02-21T10:25:46;101412.13;;;8.91;86.15
66381;BME280;53177;52.648;1.214;2023-02-21T10:28:22;101415.66;;;8.98;85.86
66381;BME280;53177;52.648;1.214;2023-02-21T10:30:48;101410.38;;;8.98;85.71
66381;BME280;53177;52.648;1.214;2023-02-21T10:33:15;101419.16;;;9.01;85.32
66381;BME280;53177;52.648;1.214;2023-02-21T10:35:40;101407.69;;;9.05;85.29
66381;BME280;53177;52.648;1.214;2023-02-21T10:38:12;101405.03;;;9.08;85.34
66381;BME280;53177;52.648;1.214;2023-02-21T10:40:44;101402.38;;;9.11;85.06
66381;BME280;53177;52.648;1.214;2023-02-21T10:46:20;101401.41;;;9.26;85.15
66381;BME280;53177;52.648;1.214;2023-02-21T10:48:51;101399.69;;;9.19;84.79
66381;BME280;53177;52.648;1.214;2023-02-21T10:51:32;101397.94;;;9.13;83.81
66381;BME280;53177;52.648;1.214;2023-02-21T10:54:22;101390.88;;;9.18;84.11
66381;BME280;53177;52.648;1.214;2023-02-21T10:56:48;101394.38;;;9.20;83.73
66381;BME280;53177;52.648;1.214;2023-02-21T10:59:26;101394.44;;;9.14;83.39
66381;BME280;53177;52.648;1.214;2023-02-21T11:01:53;101398.00;;;9.06;83.02
66381;BME280;53177;52.648;1.214;2023-02-21T11:12:04;101386.56;;;9.08;83.53
66381;BME280;53177;52.648;1.214;2023-02-21T11:14:31;101382.13;;;9.15;83.69
66381;BME280;53177;52.648;1.214;2023-02-21T11:17:18;101392.66;;;9.13;83.11
66381;BME280;53177;52.648;1.214;2023-02-21T11:19:48;101388.28;;;9.09;82.71
66381;BME280;53177;52.648;1.214;2023-02-21T11:22:16;101385.69;;;9.08;82.65
66381;BME280;53177;52.648;1.214;2023-02-21T11:27:26;101375.94;;;9.19;81.41
66381;BME280;53177;52.648;1.214;2023-02-21T11:29:52;101374.16;;;9.21;81.35
66381;BME280;53177;52.648;1.214;2023-02-21T11:32:26;101373.22;;;9.31;82.04
66381;BME280;53177;52.648;1.214;2023-02-21T11:37:59;101359.16;;;9.31;80.90
66381;BME280;53177;52.648;1.214;2023-02-21T11:43:21;101357.38;;;9.28;80.90
66381;BME280;53177;52.648;1.214;2023-02-21T11:45:56;101362.66;;;9.31;81.28
66381;BME280;53177;52.648;1.214;2023-02-21T11:48:28;101356.47;;;9.34;81.71
66381;BME280;53177;52.648;1.214;2023-02-21T11:51:00;101357.38;;;9.34;80.87
66381;BME280;53177;52.648;1.214;2023-02-21T11:53:38;101344.13;;;9.36;80.49
66381;BME280;53177;52.648;1.214;2023-02-21T11:56:23;101346.81;;;9.34;80.45
66381;BME280;53177;52.648;1.214;2023-02-21T11:59:11;101343.28;;;9.34;80.72
66381;BME280;53177;52.648;1.214;2023-02-21T12:04:25;101331.03;;;9.26;80.94
66381;BME280;53177;52.648;1.214;2023-02-21T12:07:18;101330.09;;;9.34;81.51
66381;BME280;53177;52.648;1.214;2023-02-21T12:10:03;101326.53;;;9.36;80.59
66381;BME280;53177;52.648;1.214;2023-02-21T12:17:41;101325.56;;;9.46;80.68
66381;BME280;53177;52.648;1.214;2023-02-21T12:25:51;101305.41;;;9.42;80.19
66381;BME280;53177;52.648;1.214;2023-02-21T12:31:13;101299.16;;;9.49;79.48
66381;BME280;53177;52.648;1.214;2023-02-21T12:41:58;101285.09;;;9.49;78.48
66381;BME280;53177;52.648;1.214;2023-02-21T12:47:06;101275.25;;;9.64;78.93
66381;BME280;53177;52.648;1.214;2023-02-21T12:49:51;101264.59;;;9.75;78.49
66381;BME280;53177;52.648;1.214;2023-02-21T12:52:33;101262.63;;;9.91;78.05
66381;BME280;53177;52.648;1.214;2023-02-21T12:55:11;101262.53;;;9.98;77.59
66381;BME280;53177;52.648;1.214;2023-02-21T13:00:40;101262.41;;;10.09;76.98
66381;BME280;53177;52.648;1.214;2023-02-21T13:05:57;101252.91;;;9.94;77.63
66381;BME280;53177;52.648;1.214;2023-02-21T13:08:45;101248.44;;;10.01;77.27
66381;BME280;53177;52.648;1.214;2023-02-21T13:11:31;101248.56;;;9.90;77.41
66381;BME280;53177;52.648;1.214;2023-02-21T13:13:58;101232.50;;;10.07;77.93
66381;BME280;53177;52.648;1.214;2023-02-21T13:16:24;101233.03;;;10.36;76.68
66381;BME280;53177;52.648;1.214;2023-02-21T13:19:02;101226.72;;;10.46;76.30
66381;BME280;53177;52.648;1.214;2023-02-21T13:21:49;101233.19;;;10.25;75.46
66381;BME280;53177;52.648;1.214;2023-02-21T13:29:42;101219.44;;;9.95;78.41
66381;BME280;53177;52.648;1.214;2023-02-21T13:32:11;101219.66;;;9.78;77.41
66381;BME280;53177;52.648;1.214;2023-02-21T13:34:40;101216.88;;;9.89;77.17
66381;BME280;53177;52.648;1.214;2023-02-21T13:37:22;101207.16;;;9.91;77.33
66381;BME280;53177;52.648;1.214;2023-02-21T13:39:58;101209.75;;;9.95;76.99
66381;BME280;53177;52.648;1.214;2023-02-21T13:42:33;101207.00;;;10.03;76.98
66381;BME280;53177;52.648;1.214;2023-02-21T13:55:33;101202.69;;;9.96;77.21
66381;BME280;53177;52.648;1.214;2023-02-21T14:03:01;101190.22;;;10.69;77.62
66381;BME280;53177;52.648;1.214;2023-02-21T14:10:45;101177.47;;;10.39;75.63
66381;BME280;53177;52.648;1.214;2023-02-21T14:13:35;101183.22;;;10.67;76.18
66381;BME280;53177;52.648;1.214;2023-02-21T14:18:58;101167.31;;;10.70;77.56
66381;BME280;53177;52.648;1.214;2023-02-21T14:26:54;101160.06;;;10.81;73.62
66381;BME280;53177;52.648;1.214;2023-02-21T14:29:43;101149.84;;;10.60;74.03
66381;BME280;53177;52.648;1.214;2023-02-21T14:43:26;101138.91;;;10.24;74.75
66381;BME280;53177;52.648;1.214;2023-02-21T15:02:51;101123.41;;;10.57;73.80
66381;BME280;53177;52.648;1.214;2023-02-21T15:05:29;101117.63;;;10.34;74.56
66381;BME280;53177;52.648;1.214;2023-02-21T15:10:43;101116.75;;;10.33;76.31
66381;BME280;53177;52.648;1.214;2023-02-21T15:13:30;101118.75;;;10.19;75.20
66381;BME280;53177;52.648;1.214;2023-02-21T15:15:59;101120.22;;;10.37;77.66
66381;BME280;53177;52.648;1.214;2023-02-21T15:18:31;101122.88;;;10.37;76.27
66381;BME280;53177;52.648;1.214;2023-02-21T15:23:40;101114.59;;;10.59;77.64
66381;BME280;53177;52.648;1.214;2023-02-21T15:26:37;101110.38;;;10.46;76.11
66381;BME280;53177;52.648;1.214;2023-02-21T15:31:32;101109.66;;;10.35;77.70
66381;BME280;53177;52.648;1.214;2023-02-21T15:33:58;101111.19;;;10.51;76.51
66381;BME280;53177;52.648;1.214;2023-02-21T15:36:24;101106.25;;;10.30;75.81
66381;BME280;53177;52.648;1.214;2023-02-21T15:46:33;101098.44;;;10.22;78.87
66381;BME280;53177;52.648;1.214;2023-02-21T15:49:03;101099.19;;;10.31;77.83
66381;BME280;53177;52.648;1.214;2023-02-21T15:51:29;101098.50;;;10.18;78.01
66381;BME280;53177;52.648;1.214;2023-02-21T15:54:31;101100.31;;;10.11;78.29
66381;BME280;53177;52.648;1.214;2023-02-21T15:57:23;101091.00;;;9.86;77.30
66381;BME280;53177;52.648;1.214;2023-02-21T16:00:22;101093.66;;;9.85;77.14
66381;BME280;53177;52.648;1.214;2023-02-21T16:02:49;101099.00;;;9.80;78.20
66381;BME280;53177;52.648;1.214;2023-02-21T16:07:49;101095.63;;;9.70;77.68
66381;BME280;53177;52.648;1.214;2023-02-21T16:10:23;101097.50;;;9.59;77.71
66381;BME280;53177;52.648;1.214;2023-02-21T16:12:59;101089.69;;;9.52;78.25